Time;durP1;ratioP1;P1;durP2;ratioP2;P2;SDS_P1;SDS_P2;PMS_P1;PMS_P2;Temp;Humidity;BMP_temperature;BMP_pressure;BME280_temperature;BME280_humidity;BME280_pressure;Samples;Min_cycle;Max_cycle;Signal;HPM_P1;HPM_P2
2023/11/28 00:01:05;;;;;;;0.10;0.10;;;;;;;5.31;96.29;99379.84;4866155;29;20368;-77
2023/11/28 00:03:31;;;;;;;0.00;0.00;;;;;;;5.50;96.78;99424.50;4856473;29;20026;-77
2023/11/28 00:05:57;;;;;;;0.00;0.00;;;;;;;5.31;96.26;99402.34;4849953;29;20032;-76
2023/11/28 00:08:23;;;;;;;0.00;0.00;;;;;;;5.41;95.77;99420.63;4833491;29;20092;-76
2023/11/28 00:10:49;;;;;;;0.00;0.00;;;;;;;5.49;95.46;99431.00;4866182;29;20030;-77
2023/11/28 00:13:16;;;;;;;0.05;0.05;;;;;;;5.51;95.22;99422.63;4837408;29;20044;-77
2023/11/28 00:15:45;;;;;;;0.00;0.00;;;;;;;5.64;95.14;99443.09;4872961;29;20063;-76
2023/11/28 00:18:10;;;;;;;0.00;0.00;;;;;;;5.50;95.38;99418.25;4868828;29;20021;-77
2023/11/28 00:20:36;;;;;;;0.00;0.00;;;;;;;5.56;94.87;99422.66;4849992;29;20483;-76
2023/11/28 00:23:06;;;;;;;0.10;0.10;;;;;;;5.63;95.08;99436.00;4844538;29;20445;-77
2023/11/28 00:25:31;;;;;;;0.10;0.10;;;;;;;5.66;94.90;99441.72;4841855;29;20526;-76
2023/11/28 00:27:57;;;;;;;0.10;0.10;;;;;;;5.57;94.73;99427.00;4831037;29;20029;-76
2023/11/28 00:30:23;;;;;;;0.00;0.00;;;;;;;5.52;94.15;99416.94;4831199;29;20068;-77
2023/11/28 00:32:48;;;;;;;0.00;0.00;;;;;;;5.62;94.45;99434.38;4833386;29;20468;-77
2023/11/28 00:35:14;;;;;;;0.00;0.00;;;;;;;5.71;94.47;99455.34;4835501;29;20085;-75
2023/11/28 00:37:47;;;;;;;0.00;0.00;;;;;;;5.62;93.66;99428.94;4837828;29;20137;-77
2023/11/28 00:40:13;;;;;;;0.00;0.00;;;;;;;5.67;94.32;99440.66;4874435;29;20061;-76
2023/11/28 00:42:39;;;;;;;0.00;0.00;;;;;;;5.70;94.69;99452.91;4819288;29;20029;-76
2023/11/28 00:45:07;;;;;;;0.00;0.00;;;;;;;5.68;93.87;99450.44;4848304;29;20377;-76
2023/11/28 00:47:33;;;;;;;0.00;0.00;;;;;;;5.67;93.43;99448.81;4849845;29;20093;-76
2023/11/28 00:49:59;;;;;;;0.00;0.00;;;;;;;5.55;93.64;99443.53;4839847;29;20088;-76
2023/11/28 00:52:24;;;;;;;0.00;0.00;;;;;;;5.65;93.38;99467.25;4840428;29;20040;-77
2023/11/28 00:54:50;;;;;;;0.00;0.00;;;;;;;5.57;94.13;99459.56;4865237;29;20032;-77
2023/11/28 00:57:15;;;;;;;0.00;0.00;;;;;;;5.64;94.06;99481.06;4872264;29;20025;-78
2023/11/28 00:59:43;;;;;;;0.00;0.00;;;;;;;5.60;93.57;99467.19;4840033;29;20484;-75
2023/11/28 01:02:09;;;;;;;0.00;0.00;;;;;;;5.59;94.55;99463.66;4854478;29;20070;-74
2023/11/28 01:04:35;;;;;;;0.00;0.00;;;;;;;5.64;93.90;99473.72;4843190;29;20508;-80
2023/11/28 01:07:01;;;;;;;0.10;0.10;;;;;;;5.62;94.18;99467.72;4842876;29;20025;-75
2023/11/28 01:09:26;;;;;;;0.00;0.00;;;;;;;5.64;94.30;99486.47;4849151;29;20510;-75
2023/11/28 01:11:52;;;;;;;0.00;0.00;;;;;;;5.65;93.58;99478.09;4854337;29;20033;-75
2023/11/28 01:14:18;;;;;;;0.00;0.00;;;;;;;5.65;94.25;99479.97;4856650;29;20116;-77
2023/11/28 01:16:47;;;;;;;0.00;0.00;;;;;;;5.72;93.78;99499.56;4856883;29;20754;-75
2023/11/28 01:19:13;;;;;;;0.00;0.00;;;;;;;5.65;93.55;99483.50;4872502;29;20742;-76
2023/11/28 01:21:38;;;;;;;0.00;0.00;;;;;;;5.68;93.75;99504.69;4868962;29;20045;-74
2023/11/28 01:24:04;;;;;;;0.00;0.00;;;;;;;5.65;93.90;99505.22;4843660;29;20092;-75
2023/11/28 01:26:29;;;;;;;0.10;0.10;;;;;;;5.65;93.73;99505.22;4827217;29;20024;-74
2023/11/28 01:28:55;;;;;;;0.00;0.00;;;;;;;5.66;93.68;99495.97;4853373;29;20041;-75
2023/11/28 01:31:20;;;;;;;0.10;0.10;;;;;;;5.68;93.64;99512.84;4839207;29;20491;-76
2023/11/28 01:33:46;;;;;;;0.00;0.00;;;;;;;5.68;93.88;99510.13;4832646;29;20037;-76
2023/11/28 01:36:12;;;;;;;0.00;0.00;;;;;;;5.71;93.51;99509.59;4858827;29;20037;-74
2023/11/28 01:38:38;;;;;;;0.00;0.00;;;;;;;5.81;93.03;99529.75;4839419;29;20120;-75
2023/11/28 01:41:04;;;;;;;0.10;0.10;;;;;;;5.77;93.56;99524.84;4859329;29;20144;-74
2023/11/28 01:43:30;;;;;;;0.00;0.00;;;;;;;5.73;92.85;99518.28;4859113;29;20363;-75
2023/11/28 01:45:57;;;;;;;0.00;0.00;;;;;;;5.77;93.27;99530.28;4834395;29;20044;-75
2023/11/28 01:48:23;;;;;;;0.00;0.00;;;;;;;5.79;93.05;99531.94;4857472;29;20094;-75
2023/11/28 01:50:50;;;;;;;0.10;0.10;;;;;;;5.70;93.18;99520.72;4865857;29;20033;-74
2023/11/28 01:53:17;;;;;;;0.00;0.00;;;;;;;5.75;93.18;99537.03;4856664;29;20037;-75
2023/11/28 01:55:43;;;;;;;0.05;0.05;;;;;;;5.71;93.16;99542.16;4862270;29;20027;-74
2023/11/28 01:58:09;;;;;;;0.00;0.00;;;;;;;5.70;92.79;99540.50;4846721;29;20033;-74
2023/11/28 02:00:35;;;;;;;0.00;0.00;;;;;;;5.65;93.05;99542.34;4860329;29;20029;-75
2023/11/28 02:03:03;;;;;;;0.10;0.10;;;;;;;5.69;92.86;99554.34;4831189;29;20133;-74
2023/11/28 02:05:28;;;;;;;0.00;0.00;;;;;;;5.74;92.93;99568.78;4852607;29;20034;-74
2023/11/28 02:07:55;;;;;;;0.00;0.00;;;;;;;5.79;92.85;99569.91;4835327;29;20044;-74
2023/11/28 02:10:23;;;;;;;0.00;0.00;;;;;;;5.73;92.60;99560.91;4844481;29;20025;-74
2023/11/28 02:12:49;;;;;;;0.00;0.00;;;;;;;5.76;92.88;99572.03;4836603;29;20029;-75
2023/11/28 02:15:14;;;;;;;0.00;0.00;;;;;;;5.77;92.25;99578.31;4854615;29;20136;-74
2023/11/28 02:17:40;;;;;;;0.00;0.00;;;;;;;5.80;93.19;99582.38;4875923;29;20028;-74
2023/11/28 02:20:08;;;;;;;0.10;0.10;;;;;;;5.75;92.65;99581.28;4845380;29;20041;-74
2023/11/28 02:22:33;;;;;;;0.00;0.00;;;;;;;5.81;92.72;99594.88;4842527;29;20377;-74
2023/11/28 02:24:59;;;;;;;0.00;0.00;;;;;;;5.71;93.28;99580.13;4862312;29;20124;-73
2023/11/28 02:27:24;;;;;;;0.00;0.00;;;;;;;5.81;92.37;99611.16;4878593;29;20029;-74
2023/11/28 02:29:50;;;;;;;0.00;0.00;;;;;;;5.84;92.69;99616.06;4837371;29;20026;-74
2023/11/28 02:32:15;;;;;;;0.00;0.00;;;;;;;5.83;92.99;99604.41;4823671;29;20357;-73
2023/11/28 02:34:40;;;;;;;0.00;0.00;;;;;;;5.86;93.05;99619.38;4826267;29;20057;-73
2023/11/28 02:37:07;;;;;;;0.00;0.00;;;;;;;5.85;92.52;99612.28;4834828;29;20041;-74
2023/11/28 02:39:32;;;;;;;0.03;0.03;;;;;;;5.84;92.57;99616.06;4848627;29;20040;-74
2023/11/28 02:41:57;;;;;;;0.00;0.00;;;;;;;5.85;93.05;99610.38;4849752;29;20524;-75
2023/11/28 02:44:23;;;;;;;0.00;0.00;;;;;;;5.84;92.84;99613.34;4871452;29;20028;-74
2023/11/28 02:46:48;;;;;;;0.00;0.00;;;;;;;5.83;92.67;99609.03;4840905;29;20456;-74
2023/11/28 02:49:14;;;;;;;0.00;0.00;;;;;;;5.75;91.91;99602.97;4855454;29;20029;-75
2023/11/28 02:51:41;;;;;;;0.00;0.00;;;;;;;5.75;92.60;99602.97;4859161;29;20044;-74
2023/11/28 02:54:07;;;;;;;0.05;0.05;;;;;;;5.74;92.31;99600.53;4834394;29;20084;-75
2023/11/28 02:56:33;;;;;;;0.00;0.00;;;;;;;5.73;92.15;99599.69;4841873;29;20068;-74
2023/11/28 02:58:58;;;;;;;0.00;0.00;;;;;;;5.73;92.37;99605.09;4828578;29;20029;-74
2023/11/28 03:01:23;;;;;;;0.00;0.00;;;;;;;5.76;92.53;99593.75;4845576;29;20080;-75
2023/11/28 03:03:49;;;;;;;0.10;0.10;;;;;;;5.75;92.77;99597.56;4847747;29;20472;-74
2023/11/28 03:06:14;;;;;;;0.00;0.00;;;;;;;5.74;92.62;99597.81;4822903;29;20037;-75
2023/11/28 03:08:40;;;;;;;0.00;0.00;;;;;;;5.78;93.01;99609.75;4847588;29;20025;-75
2023/11/28 03:11:06;;;;;;;0.00;0.00;;;;;;;5.71;92.66;99607.28;4854551;29;20037;-75
2023/11/28 03:13:31;;;;;;;0.00;0.00;;;;;;;5.69;93.02;99612.09;4871505;29;20129;-74
2023/11/28 03:15:57;;;;;;;0.00;0.00;;;;;;;5.52;92.81;99595.09;4842091;29;20037;-75
2023/11/28 03:18:22;;;;;;;0.00;0.00;;;;;;;5.57;93.07;99606.81;4867886;29;20392;-75
2023/11/28 03:20:47;;;;;;;0.00;0.00;;;;;;;5.58;92.65;99618.50;4853133;29;20021;-75
2023/11/28 03:23:13;;;;;;;0.00;0.00;;;;;;;5.55;93.36;99608.16;4837556;29;20033;-74
2023/11/28 03:25:39;;;;;;;0.10;0.10;;;;;;;5.59;93.27;99612.00;4847890;29;20484;-75
2023/11/28 03:28:04;;;;;;;0.00;0.00;;;;;;;5.64;92.92;99609.34;4850435;29;20128;-74
2023/11/28 03:30:29;;;;;;;0.00;0.00;;;;;;;5.65;92.57;99608.28;4831377;29;20524;-74
2023/11/28 03:32:55;;;;;;;0.00;0.00;;;;;;;5.59;92.70;99603.84;4871353;29;21182;-74
2023/11/28 03:35:20;;;;;;;0.00;0.00;;;;;;;5.65;93.46;99613.72;4838337;29;20365;-74
2023/11/28 03:37:48;;;;;;;0.00;0.00;;;;;;;5.62;93.11;99619.63;4851367;29;20026;-74
2023/11/28 03:40:16;;;;;;;0.00;0.00;;;;;;;5.65;92.54;99623.72;4837629;29;20057;-75
2023/11/28 03:42:41;;;;;;;0.00;0.00;;;;;;;5.63;92.97;99621.25;4855436;29;20052;-74
2023/11/28 03:45:07;;;;;;;0.00;0.00;;;;;;;5.62;92.92;99618.81;4834192;29;20543;-75
2023/11/28 03:47:33;;;;;;;0.00;0.00;;;;;;;5.66;92.30;99631.59;4843880;29;20109;-75
2023/11/28 03:49:59;;;;;;;0.00;0.00;;;;;;;5.63;92.56;99632.13;4841143;29;20461;-75
2023/11/28 03:52:24;;;;;;;0.00;0.00;;;;;;;5.45;92.19;99597.16;4841568;29;20092;-74
2023/11/28 03:54:50;;;;;;;0.00;0.00;;;;;;;5.56;92.66;99615.22;4875501;29;20092;-75
2023/11/28 03:57:15;;;;;;;0.00;0.00;;;;;;;5.49;92.87;99610.00;4860982;29;20369;-73
2023/11/28 03:59:41;;;;;;;0.00;0.00;;;;;;;5.36;93.00;99610.34;4855643;29;20393;-74
2023/11/28 04:02:07;;;;;;;0.00;0.00;;;;;;;5.23;93.90;99616.97;4850661;29;20093;-74
2023/11/28 04:04:37;;;;;;;0.00;0.00;;;;;;;5.18;94.34;99622.31;4902002;23;20931;-77
2023/11/28 04:07:13;;;;;;;0.00;0.00;;;;;;;5.03;93.82;99612.91;4860068;29;20078;-75
2023/11/28 04:09:41;;;;;;;0.00;0.00;;;;;;;5.02;94.11;99610.44;4866096;29;20037;-74
2023/11/28 04:12:06;;;;;;;0.00;0.00;;;;;;;5.06;94.37;99617.00;4863650;29;20091;-74
2023/11/28 04:14:32;;;;;;;0.00;0.00;;;;;;;5.06;94.55;99617.81;4848079;29;20049;-75
2023/11/28 04:16:57;;;;;;;0.00;0.00;;;;;;;4.99;94.32;99622.59;4873457;29;20025;-74
2023/11/28 04:19:23;;;;;;;0.00;0.00;;;;;;;4.93;94.75;99607.31;4838218;29;20037;-74
2023/11/28 04:21:58;;;;;;;0.00;0.00;;;;;;;4.76;94.87;99604.66;4828138;29;20045;-73
2023/11/28 04:24:24;;;;;;;0.00;0.00;;;;;;;4.55;95.21;99614.34;4854406;29;20092;-76
2023/11/28 04:26:49;;;;;;;0.00;0.00;;;;;;;4.39;97.10;99615.97;4842821;29;20033;-74
2023/11/28 04:29:15;;;;;;;0.00;0.00;;;;;;;4.20;96.53;99599.13;4859208;29;20036;-73
2023/11/28 04:31:41;;;;;;;0.00;0.00;;;;;;;4.53;96.88;99636.25;4851430;29;20161;-74
2023/11/28 04:34:06;;;;;;;0.00;0.00;;;;;;;4.62;97.59;99639.38;4862856;29;20100;-73
2023/11/28 04:36:32;;;;;;;0.00;0.00;;;;;;;4.71;96.22;99637.88;4852513;29;20484;-74
2023/11/28 04:38:59;;;;;;;0.10;0.10;;;;;;;4.70;96.18;99611.88;4842939;29;20053;-74
2023/11/28 04:41:27;;;;;;;0.00;0.00;;;;;;;4.91;95.32;99642.00;4863012;29;20028;-74
2023/11/28 04:43:52;;;;;;;0.00;0.00;;;;;;;4.84;95.69;99619.66;4864174;29;20025;-75
2023/11/28 04:46:17;;;;;;;0.00;0.00;;;;;;;4.86;96.03;99625.66;4852522;29;20056;-75
2023/11/28 04:48:43;;;;;;;0.00;0.00;;;;;;;4.72;96.18;99639.53;4862841;29;20025;-75
2023/11/28 04:51:08;;;;;;;0.00;0.00;;;;;;;4.42;96.39;99639.03;4858090;29;20128;-75
2023/11/28 04:53:34;;;;;;;0.00;0.00;;;;;;;4.10;97.62;99636.84;4846211;29;20044;-73
2023/11/28 04:55:59;;;;;;;0.00;0.00;;;;;;;3.85;97.81;99632.59;4863876;29;20184;-74
2023/11/28 04:58:25;;;;;;;0.00;0.00;;;;;;;3.66;98.67;99637.34;4837562;29;20041;-74
2023/11/28 05:00:50;;;;;;;0.00;0.00;;;;;;;3.58;99.11;99645.84;4867756;29;20029;-74
2023/11/28 05:03:16;;;;;;;0.00;0.00;;;;;;;3.52;99.77;99657.59;4851989;29;20034;-73
2023/11/28 05:05:42;;;;;;;0.00;0.00;;;;;;;3.39;100.00;99654.13;4864814;29;20077;-73
2023/11/28 05:08:07;;;;;;;0.00;0.00;;;;;;;3.30;100.00;99658.22;4832573;29;20108;-73
2023/11/28 05:10:33;;;;;;;0.00;0.00;;;;;;;3.16;100.00;99641.44;4848027;29;20086;-74
2023/11/28 05:12:58;;;;;;;0.00;0.00;;;;;;;3.04;100.00;99635.22;4826476;29;20045;-75
2023/11/28 05:15:24;;;;;;;0.00;0.00;;;;;;;2.99;100.00;99643.22;4821051;29;20037;-76
2023/11/28 05:17:49;;;;;;;0.00;0.00;;;;;;;2.99;100.00;99643.22;4840035;29;20017;-76
2023/11/28 05:20:15;;;;;;;0.10;0.10;;;;;;;2.98;100.00;99655.91;4855608;29;20061;-75
2023/11/28 05:22:40;;;;;;;0.00;0.00;;;;;;;3.01;100.00;99673.50;4853237;29;20062;-74
2023/11/28 05:25:06;;;;;;;0.00;0.00;;;;;;;3.05;100.00;99686.34;4853206;29;20112;-74
2023/11/28 05:27:32;;;;;;;0.00;0.00;;;;;;;2.78;100.00;99659.75;4833535;29;20116;-74
2023/11/28 05:29:57;;;;;;;0.00;0.00;;;;;;;2.97;100.00;99690.19;4854090;29;20117;-75
2023/11/28 05:32:23;;;;;;;0.00;0.00;;;;;;;2.95;100.00;99686.09;4859596;29;20034;-74
2023/11/28 05:34:48;;;;;;;0.00;0.00;;;;;;;2.95;100.00;99680.69;4817700;29;20442;-73
2023/11/28 05:37:13;;;;;;;0.00;0.00;;;;;;;2.99;100.00;99697.25;4837457;29;20433;-73
2023/11/28 05:39:39;;;;;;;0.00;0.00;;;;;;;2.95;100.00;99694.19;4845401;29;20379;-75
2023/11/28 05:42:05;;;;;;;0.00;0.00;;;;;;;2.96;100.00;99688.56;4827470;29;20061;-74
2023/11/28 05:44:30;;;;;;;0.00;0.00;;;;;;;3.13;100.00;99698.66;4834221;29;20033;-74
2023/11/28 05:46:56;;;;;;;0.10;0.10;;;;;;;3.30;100.00;99712.25;4842157;29;20374;-74
2023/11/28 05:49:21;;;;;;;0.00;0.00;;;;;;;3.57;100.00;99715.31;4850911;29;20033;-76
2023/11/28 05:51:46;;;;;;;0.00;0.00;;;;;;;3.74;100.00;99711.88;4831886;29;20502;-75
2023/11/28 05:54:12;;;;;;;0.00;0.00;;;;;;;3.89;100.00;99706.78;4836801;29;20684;-74
2023/11/28 05:56:37;;;;;;;0.00;0.00;;;;;;;4.11;100.00;99714.25;4831496;29;20090;-75
2023/11/28 05:59:03;;;;;;;0.00;0.00;;;;;;;4.27;100.00;99724.31;4866425;29;20037;-74
2023/11/28 06:01:28;;;;;;;0.00;0.00;;;;;;;4.40;100.00;99727.81;4847577;29;20090;-74
2023/11/28 06:03:56;;;;;;;0.00;0.00;;;;;;;4.42;100.00;99725.66;4847052;29;20026;-75
2023/11/28 06:06:21;;;;;;;0.00;0.00;;;;;;;4.45;100.00;99725.97;4854351;29;20096;-75
2023/11/28 06:08:47;;;;;;;0.00;0.00;;;;;;;4.42;100.00;99729.19;4831438;29;20048;-74
2023/11/28 06:11:12;;;;;;;0.00;0.00;;;;;;;4.41;100.00;99714.03;4840636;29;20034;-75
2023/11/28 06:13:38;;;;;;;0.00;0.00;;;;;;;4.33;100.00;99707.09;4838146;29;20037;-74
2023/11/28 06:16:05;;;;;;;0.00;0.00;;;;;;;4.45;100.00;99719.75;4851822;29;20025;-75
2023/11/28 06:18:30;;;;;;;0.00;0.00;;;;;;;4.52;100.00;99725.84;4850220;29;20120;-74
2023/11/28 06:20:56;;;;;;;0.00;0.00;;;;;;;4.60;100.00;99727.31;4833686;29;20136;-75
2023/11/28 06:23:21;;;;;;;0.00;0.00;;;;;;;4.65;100.00;99739.06;4853313;29;20089;-75
2023/11/28 06:25:47;;;;;;;0.00;0.00;;;;;;;4.66;100.00;99738.03;4874711;29;20036;-75
2023/11/28 06:28:12;;;;;;;0.00;0.00;;;;;;;4.64;100.00;99729.31;4869360;29;20117;-74
2023/11/28 06:30:37;;;;;;;0.10;0.10;;;;;;;4.76;100.00;99752.78;4819231;29;20036;-75
2023/11/28 06:33:03;;;;;;;0.10;0.10;;;;;;;4.81;100.00;99750.19;4844771;29;20033;-75
2023/11/28 06:35:32;;;;;;;0.08;0.08;;;;;;;4.84;100.00;99750.50;4841391;29;20389;-75
2023/11/28 06:37:58;;;;;;;0.00;0.00;;;;;;;4.82;100.00;99741.81;4826335;29;20059;-74
2023/11/28 06:40:25;;;;;;;0.00;0.00;;;;;;;4.93;100.00;99759.06;4848381;29;20056;-75
2023/11/28 06:42:52;;;;;;;0.00;0.00;;;;;;;4.96;100.00;99763.16;4822518;29;20047;-75
2023/11/28 06:45:19;;;;;;;0.00;0.00;;;;;;;5.02;100.00;99768.44;4852048;29;20112;-76
2023/11/28 06:47:45;;;;;;;0.00;0.00;;;;;;;5.03;99.96;99775.50;4835817;29;20516;-75
2023/11/28 06:50:10;;;;;;;0.03;0.03;;;;;;;4.95;100.00;99762.38;4835206;29;20044;-76
2023/11/28 06:52:36;;;;;;;0.00;0.00;;;;;;;4.96;99.77;99766.69;4835718;29;20033;-75
2023/11/28 06:55:06;;;;;;;0.00;0.00;;;;;;;5.03;100.00;99778.19;4852541;29;20082;-76
2023/11/28 06:57:33;;;;;;;0.10;0.10;;;;;;;4.99;100.00;99768.91;4861596;29;20147;-77
2023/11/28 06:59:59;;;;;;;0.00;0.00;;;;;;;5.09;100.00;99779.09;4852474;29;20086;-75
2023/11/28 07:02:25;;;;;;;0.03;0.03;;;;;;;4.96;99.85;99761.28;4839944;29;20089;-76
2023/11/28 07:05:18;;;;;;;0.00;0.00;;;;;;;4.97;100.00;99775.66;4836016;29;20056;-74
2023/11/28 07:07:49;;;;;;;0.00;0.00;;;;;;;4.99;100.00;99779.75;4857918;29;20102;-76
2023/11/28 07:10:15;;;;;;;0.00;0.00;;;;;;;5.02;100.00;99789.28;4851802;29;20026;-77
2023/11/28 07:12:42;;;;;;;0.00;0.00;;;;;;;4.93;100.00;99775.31;4854357;29;20042;-72
2023/11/28 07:15:08;;;;;;;0.00;0.00;;;;;;;5.13;99.57;99798.44;4847023;29;20040;-74
2023/11/28 07:17:33;;;;;;;0.00;0.00;;;;;;;5.07;100.00;99787.50;4864764;29;20030;-75
2023/11/28 07:19:59;;;;;;;0.00;0.00;;;;;;;5.22;99.38;99805.06;4859362;29;20036;-76
2023/11/28 07:22:26;;;;;;;0.00;0.00;;;;;;;5.24;99.55;99813.78;4849235;29;20022;-73
2023/11/28 07:24:52;;;;;;;0.10;0.10;;;;;;;5.03;98.94;99802.59;4842955;29;20116;-76
2023/11/28 07:27:17;;;;;;;0.00;0.00;;;;;;;4.70;99.53;99793.34;4840294;29;20133;-74
2023/11/28 07:29:42;;;;;;;0.00;0.00;;;;;;;4.62;100.00;99806.47;4841126;29;20029;-75
2023/11/28 07:32:34;;;;;;;0.00;0.00;;;;;;;4.47;100.00;99809.69;4846584;29;20120;-74
2023/11/28 07:35:00;;;;;;;0.00;0.00;;;;;;;4.25;100.00;99810.34;4838682;29;20389;-74
2023/11/28 07:37:25;;;;;;;0.00;0.00;;;;;;;3.91;100.00;99788.50;4843569;29;20042;-73
2023/11/28 07:39:51;;;;;;;0.00;0.00;;;;;;;3.80;100.00;99811.00;4831751;29;20034;-75
2023/11/28 07:42:24;;;;;;;0.00;0.00;;;;;;;3.73;100.00;99815.72;4841010;29;20040;-74
2023/11/28 07:44:49;;;;;;;0.00;0.00;;;;;;;4.06;100.00;99846.72;4849551;29;20037;-73
2023/11/28 07:47:21;;;;;;;0.00;0.00;;;;;;;4.32;100.00;99851.63;4850256;29;20040;-75
2023/11/28 07:49:47;;;;;;;0.00;0.00;;;;;;;4.28;100.00;99820.69;4839110;29;20413;-72
2023/11/28 07:52:12;;;;;;;0.00;0.00;;;;;;;4.54;100.00;99842.84;4844252;29;20042;-73
2023/11/28 07:54:38;;;;;;;0.00;0.00;;;;;;;4.74;100.00;99863.28;4829259;29;20041;-72
2023/11/28 07:57:03;;;;;;;0.00;0.00;;;;;;;4.80;100.00;99852.28;4856647;29;20649;-73
2023/11/28 07:59:29;;;;;;;0.00;0.00;;;;;;;5.00;99.79;99868.13;4849089;29;20022;-74
2023/11/28 08:01:56;;;;;;;0.00;0.00;;;;;;;5.07;99.62;99863.38;4844547;29;20057;-74
2023/11/28 08:04:22;;;;;;;0.00;0.00;;;;;;;5.06;99.22;99848.16;4836886;29;20485;-74
2023/11/28 08:06:48;;;;;;;0.00;0.00;;;;;;;5.15;99.40;99855.91;4846759;29;20137;-73
2023/11/28 08:09:17;;;;;;;0.00;0.00;;;;;;;5.39;99.34;99881.81;4851965;29;20112;-73
2023/11/28 08:11:42;;;;;;;0.00;0.00;;;;;;;5.28;98.58;99852.88;4851603;29;20040;-71
2023/11/28 08:14:08;;;;;;;0.00;0.00;;;;;;;5.36;98.13;99857.91;4841136;29;20568;-73
2023/11/28 08:16:33;;;;;;;0.00;0.00;;;;;;;5.64;98.17;99894.19;4833044;29;20052;-75
2023/11/28 08:18:58;;;;;;;0.00;0.00;;;;;;;5.65;98.62;99890.41;4844726;29;20029;-73
2023/11/28 08:21:25;;;;;;;0.00;0.00;;;;;;;5.66;97.64;99872.22;4837147;29;20037;-72
2023/11/28 08:23:51;;;;;;;0.00;0.00;;;;;;;5.69;98.00;99877.97;4846464;29;20354;-74
2023/11/28 08:26:17;;;;;;;0.00;0.00;;;;;;;5.88;97.98;99900.25;4851634;29;20062;-74
2023/11/28 08:28:42;;;;;;;0.10;0.10;;;;;;;5.95;97.36;99883.78;4835421;29;20464;-73
2023/11/28 08:31:08;;;;;;;0.00;0.00;;;;;;;6.07;97.38;99891.88;4824583;29;20062;-73
2023/11/28 08:33:34;;;;;;;0.00;0.00;;;;;;;6.17;97.37;99907.50;4850245;29;20038;-74
2023/11/28 08:35:59;;;;;;;0.00;0.00;;;;;;;6.22;96.88;99894.81;4832597;29;20034;-74
2023/11/28 08:38:25;;;;;;;0.00;0.00;;;;;;;6.25;96.07;99888.03;4819325;29;20026;-74
2023/11/28 08:40:50;;;;;;;0.00;0.00;;;;;;;6.32;95.84;99885.97;4833610;29;20135;-74
2023/11/28 08:43:16;;;;;;;0.00;0.00;;;;;;;6.50;95.83;99901.16;4837810;29;20120;-74
2023/11/28 08:45:41;;;;;;;0.00;0.00;;;;;;;6.55;95.05;99903.13;4818518;29;20185;-73
2023/11/28 08:48:07;;;;;;;0.00;0.00;;;;;;;6.62;95.14;99906.47;4817303;29;20037;-73
2023/11/28 08:50:32;;;;;;;0.05;0.05;;;;;;;6.59;94.96;99882.53;4840892;29;20084;-73
2023/11/28 08:52:58;;;;;;;0.00;0.00;;;;;;;6.97;93.92;99907.97;4835836;29;20038;-73
2023/11/28 08:55:23;;;;;;;0.00;0.00;;;;;;;7.27;93.21;99904.75;4819875;29;20043;-74
2023/11/28 08:57:49;;;;;;;0.00;0.00;;;;;;;7.68;92.58;99909.72;4849029;29;20733;-74
2023/11/28 09:00:15;;;;;;;0.00;0.00;;;;;;;7.96;90.27;99884.09;4845491;29;20071;-73
2023/11/28 09:02:42;;;;;;;0.00;0.00;;;;;;;8.50;88.37;99893.97;4826672;29;20026;-74
2023/11/28 09:05:08;;;;;;;0.10;0.10;;;;;;;8.79;85.61;99915.38;4821075;29;20064;-73
2023/11/28 09:07:33;;;;;;;0.00;0.00;;;;;;;8.73;84.95;99913.69;4844261;29;20029;-73
2023/11/28 09:09:58;;;;;;;0.00;0.00;;;;;;;8.57;83.57;99907.34;4822065;29;20036;-74
2023/11/28 09:12:24;;;;;;;0.00;0.00;;;;;;;8.79;83.84;99918.09;4846752;29;20037;-74
2023/11/28 09:14:50;;;;;;;0.00;0.00;;;;;;;9.09;82.85;99916.56;4841681;29;20034;-73
2023/11/28 09:17:16;;;;;;;0.00;0.00;;;;;;;9.38;81.95;99918.81;4844096;29;20074;-74
2023/11/28 09:19:41;;;;;;;0.00;0.00;;;;;;;9.67;80.40;99921.03;4847242;29;20712;-73
2023/11/28 09:22:07;;;;;;;0.00;0.00;;;;;;;9.42;78.89;99925.38;4842753;29;20030;-73
2023/11/28 09:24:32;;;;;;;0.00;0.00;;;;;;;8.97;79.73;99916.00;4851942;29;20034;-73
2023/11/28 09:27:01;;;;;;;0.00;0.00;;;;;;;8.49;80.23;99905.97;4849243;29;20103;-73
2023/11/28 09:29:26;;;;;;;0.00;0.00;;;;;;;8.03;80.80;99908.38;4842784;29;21212;-74
2023/11/28 09:31:54;;;;;;;0.00;0.00;;;;;;;7.66;81.72;99907.28;4860166;29;20033;-75
2023/11/28 09:34:22;;;;;;;0.00;0.00;;;;;;;7.74;82.71;99925.06;4845508;29;20029;-74
2023/11/28 09:36:49;;;;;;;0.00;0.00;;;;;;;7.95;82.42;99914.31;4848644;29;20104;-75
2023/11/28 09:39:15;;;;;;;0.00;0.00;;;;;;;8.38;81.52;99912.41;4835521;29;20033;-74
2023/11/28 09:41:43;;;;;;;0.00;0.00;;;;;;;8.76;79.87;99924.09;4851445;29;20037;-74
2023/11/28 09:44:14;;;;;;;0.00;0.00;;;;;;;9.03;78.68;99923.09;4847031;29;20057;-73
2023/11/28 09:46:43;;;;;;;0.00;0.00;;;;;;;9.24;78.00;99913.88;4844690;29;20026;-74
2023/11/28 09:49:10;;;;;;;0.00;0.00;;;;;;;9.51;77.83;99934.66;4847957;29;20128;-74
2023/11/28 09:51:38;;;;;;;0.00;0.00;;;;;;;9.36;76.64;99929.16;4832806;29;20030;-74
2023/11/28 09:54:06;;;;;;;0.00;0.00;;;;;;;9.40;76.91;99933.00;4839089;29;20037;-74
2023/11/28 09:56:32;;;;;;;0.10;0.10;;;;;;;9.82;76.14;99928.41;4833237;29;20080;-73
2023/11/28 09:58:59;;;;;;;0.00;0.00;;;;;;;10.35;74.42;99942.56;4828119;29;20055;-73
2023/11/28 10:01:27;;;;;;;0.00;0.00;;;;;;;10.66;73.48;99953.47;4841680;29;20128;-75
2023/11/28 10:03:55;;;;;;;0.00;0.00;;;;;;;10.85;72.85;99939.16;4843021;29;20038;-73
2023/11/28 10:06:24;;;;;;;0.00;0.00;;;;;;;11.19;72.51;99906.44;4860073;29;20060;-73
2023/11/28 10:08:52;;;;;;;0.00;0.00;;;;;;;11.87;70.77;99926.75;4850797;29;20021;-74
2023/11/28 10:11:21;;;;;;;0.00;0.00;;;;;;;13.40;68.95;99934.44;4850069;29;20060;-74
2023/11/28 10:13:47;;;;;;;0.00;0.00;;;;;;;15.19;61.16;99921.28;4849719;29;20104;-73
2023/11/28 10:16:13;;;;;;;0.00;0.00;;;;;;;15.93;56.46;99930.38;4863888;29;20460;-73
2023/11/28 10:18:47;;;;;;;0.00;0.00;;;;;;;14.97;55.65;99943.28;4862148;29;20137;-74
2023/11/28 10:21:13;;;;;;;0.00;0.00;;;;;;;13.72;57.47;99924.59;4840248;29;20040;-74
2023/11/28 10:23:46;;;;;;;0.10;0.10;;;;;;;13.10;59.78;99947.44;4855470;29;20044;-73
2023/11/28 10:26:12;;;;;;;0.00;0.00;;;;;;;12.53;61.11;99936.31;4850470;29;20029;-73
2023/11/28 10:28:37;;;;;;;0.00;0.00;;;;;;;12.32;62.60;99951.34;4867978;29;20084;-73
2023/11/28 10:31:08;;;;;;;0.00;0.00;;;;;;;12.30;63.77;99945.34;4836330;29;20044;-74
2023/11/28 10:33:34;;;;;;;0.10;0.10;;;;;;;12.43;64.17;99938.34;4817029;29;20037;-74
2023/11/28 10:35:59;;;;;;;0.00;0.00;;;;;;;12.74;63.67;99945.09;4849674;29;20029;-74
2023/11/28 10:38:27;;;;;;;0.00;0.00;;;;;;;13.16;63.46;99950.91;4833537;29;20026;-74
2023/11/28 10:40:55;;;;;;;0.00;0.00;;;;;;;13.32;62.37;99959.78;4851141;29;20028;-73
2023/11/28 10:43:21;;;;;;;0.00;0.00;;;;;;;13.44;61.94;99962.91;4843235;29;20041;-73
2023/11/28 10:45:47;;;;;;;0.00;0.00;;;;;;;13.61;61.08;99967.09;4846110;29;20494;-73
2023/11/28 10:48:13;;;;;;;0.00;0.00;;;;;;;13.73;60.98;99953.72;4863141;29;20060;-74
2023/11/28 10:50:44;;;;;;;0.00;0.00;;;;;;;13.67;60.44;99943.06;4855189;29;20040;-73
2023/11/28 10:53:13;;;;;;;0.00;0.00;;;;;;;13.57;59.59;99935.84;4868631;29;20041;-75
2023/11/28 10:55:47;;;;;;;0.00;0.00;;;;;;;13.48;59.70;99945.84;4852575;29;20029;-74
2023/11/28 10:58:15;;;;;;;0.00;0.00;;;;;;;13.40;59.99;99959.16;4849119;29;20037;-73
2023/11/28 11:00:44;;;;;;;0.00;0.00;;;;;;;13.22;60.23;99940.69;4847554;29;20049;-74
2023/11/28 11:03:12;;;;;;;0.00;0.00;;;;;;;13.26;60.61;99944.47;4845374;29;20084;-74
2023/11/28 11:05:38;;;;;;;0.00;0.00;;;;;;;13.54;60.44;99950.16;4865880;29;20053;-74
2023/11/28 11:08:09;;;;;;;0.00;0.00;;;;;;;13.98;59.54;99946.16;4850819;29;20865;-75
2023/11/28 11:10:35;;;;;;;0.00;0.00;;;;;;;14.37;58.57;99931.19;4856890;29;20120;-74
2023/11/28 11:13:23;;;;;;;0.00;0.00;;;;;;;14.68;57.87;99933.38;4867406;29;20038;-73
2023/11/28 11:16:16;;;;;;;0.00;0.00;;;;;;;14.73;57.25;99927.75;4871408;29;20029;-74
2023/11/28 11:18:45;;;;;;;0.00;0.00;;;;;;;14.81;56.80;99937.25;4857443;29;20024;-73
2023/11/28 11:21:39;;;;;;;0.00;0.00;;;;;;;14.99;56.97;99938.25;4856433;29;20112;-73
2023/11/28 11:24:05;;;;;;;0.00;0.00;;;;;;;15.32;55.71;99924.34;4854092;29;20041;-73
2023/11/28 11:26:45;;;;;;;0.00;0.00;;;;;;;15.57;54.68;99919.38;4855955;29;20048;-74
2023/11/28 11:29:23;;;;;;;0.00;0.00;;;;;;;16.03;54.49;99921.84;4844954;29;20345;-73
2023/11/28 11:31:55;;;;;;;0.00;0.00;;;;;;;16.37;53.57;99912.13;4862584;29;20029;-75
2023/11/28 11:34:42;;;;;;;0.00;0.00;;;;;;;16.51;52.92;99912.00;4855933;29;20048;-73
2023/11/28 11:37:20;;;;;;;0.00;0.00;;;;;;;16.31;52.50;99918.06;4848229;29;20801;-74